Latest Weather Observations for Trepell

IDQ60801

Issued at 3:35 pm EST Thursday 17 April 2014 (issued every 30 minutes, with the page automatically refreshed every 10 minutes)

About weather observations | Map of weather stations | Latest weather observations for QLD | Other Formats
Station Details ID: 037036 Name: TREPELL AIRPORT Lat: -21.84 Lon: 140.89 Height: 266.2 m
Data from the previous 72 hours. | See also: Recent months at Trepell
Date/Time
EST
Temp
°C
App
Temp
°C
Dew
Point
Rel
Hum
%
Delta-T
°C
Wind Press
QNH
hPa
Press
MSL
hPa
Rain
since 9 am
mm
Dir
 
Spd
km/h
Gust
km/h
Spd
kts
Gust
kts
17/03:30pm 33.6 29.5 4.3 16 15.6 SW 15 24 8 13 1014.3 - 0.0
17/03:00pm 32.8 29.7 3.7 16 15.2 WSW 9 17 5 9 1014.5 1013.1 0.0
17/02:30pm 32.8 29.9 4.6 17 15.0 NNW 9 17 5 9 1014.8 - 0.0
17/02:00pm 32.7 29.0 4.5 17 15.0 SE 13 19 7 10 1015.1 - 0.0
17/01:30pm 33.6 28.7 5.2 17 15.3 S 20 26 11 14 1015.4 - 0.0
17/01:00pm 32.6 28.7 5.2 18 14.7 ESE 15 24 8 13 1015.8 - 0.0
17/12:30pm 31.6 28.2 5.9 20 13.9 SSE 13 20 7 11 1016.5 - 0.0
17/12:00pm 31.7 27.6 6.0 20 13.9 ESE 17 24 9 13 1017.1 1015.6 0.0
17/11:30am 30.6 26.4 5.8 21 13.3 ESE 17 26 9 14 1017.7 - 0.0
17/11:00am 29.5 24.9 5.6 22 12.7 ESE 19 26 10 14 1018.1 - 0.0
17/10:30am 28.9 24.3 6.3 24 12.1 ESE 20 26 11 14 1018.4 - 0.0
17/10:00am 27.8 23.1 6.0 25 11.5 ESE 20 26 11 14 1018.5 - 0.0
17/09:30am 27.2 23.6 6.6 27 11.0 SSE 15 22 8 12 1018.5 - 0.0
17/09:00am 24.1 20.5 5.0 29 9.7 SSE 13 17 7 9 1018.5 1017.1 0.0
17/08:30am 22.4 19.2 4.9 32 8.8 S 11 15 6 8 1018.3 - 0.0
17/08:00am 20.8 17.5 4.4 34 8.1 SSW 11 13 6 7 1018.2 - 0.0
17/07:30am 18.8 15.9 4.6 39 6.9 SSW 9 11 5 6 1018.0 - 0.0
17/07:00am 17.2 14.2 4.2 42 6.2 SW 9 13 5 7 1017.8 - 0.0
17/06:30am 18.0 15.0 4.2 40 6.6 SSW 9 11 5 6 1017.4 - 0.0
17/06:00am 18.0 15.1 4.6 41 6.5 SSW 9 11 5 6 1017.0 1015.5 0.0
17/05:30am 18.6 15.3 4.8 40 6.7 SW 11 13 6 7 1016.8 - 0.0
17/05:00am 18.4 15.2 4.9 41 6.6 SW 11 13 6 7 1016.7 - 0.0
17/04:30am 18.9 16.1 5.0 40 6.8 SW 9 11 5 6 1016.0 - 0.0
17/04:00am 19.4 16.6 5.1 39 7.1 SSW 9 11 5 6 1016.0 - 0.0
17/03:30am 19.7 16.0 4.6 37 7.4 SW 13 15 7 8 1015.8 - 0.0
17/03:00am 20.2 16.5 4.7 36 7.6 SW 13 15 7 8 1015.7 1014.3 0.0
17/02:30am 20.5 17.3 4.9 36 7.7 SSW 11 13 6 7 1015.8 - 0.0
17/02:00am 21.1 17.8 4.6 34 8.2 SSW 11 13 6 7 1015.9 - 0.0
17/01:30am 21.4 18.1 4.5 33 8.3 SSW 11 13 6 7 1016.3 - 0.0
17/01:00am 21.9 18.6 4.5 32 8.6 SSW 11 13 6 7 1016.3 - 0.0
17/12:30am 22.7 19.0 4.7 31 9.0 SSW 13 15 7 8 1016.3 - 0.0
17/12:00am 23.1 19.4 4.6 30 9.3 SSW 13 15 7 8 1016.3 1014.8 0.0
 
Date/Time
EST
Temp
°C
App
Temp
°C
Dew
Point
Rel
Hum
%
Delta-T
°C
Wind Press
QNH
hPa
Press
MSL
hPa
Rain
since 9 am
mm
Dir
 
Spd
km/h
Gust
km/h
Spd
kts
Gust
kts
16/11:30pm 24.3 20.6 4.6 28 9.9 S 13 15 7 8 1016.2 - 0.0
16/11:00pm 24.9 21.2 4.6 27 10.3 S 13 17 7 9 1016.2 - 0.0
16/10:30pm 25.5 21.8 4.6 26 10.6 S 13 19 7 10 1016.0 - 0.0
16/10:00pm 26.3 22.3 4.7 25 11.1 S 15 19 8 10 1015.9 - 0.0
16/09:30pm 27.1 22.7 4.8 24 11.5 S 17 24 9 13 1015.5 - 0.0
16/09:00pm 27.6 23.3 5.2 24 11.7 S 17 20 9 11 1015.2 1013.8 0.0
16/08:30pm 28.1 23.7 5.0 23 12.0 S 17 22 9 12 1014.8 - 0.0
16/08:00pm 28.1 24.1 5.0 23 12.0 SSW 15 20 8 11 1014.4 - 0.0
16/07:30pm 29.2 26.2 6.0 23 12.4 S 11 15 6 8 1014.0 - 0.0
16/07:00pm 30.3 27.0 6.2 22 13.0 S 13 17 7 9 1013.7 - 0.0
16/06:30pm 31.1 27.0 6.2 21 13.5 S 17 20 9 11 1013.3 - 0.0
16/06:00pm 32.0 27.9 6.2 20 14.0 S 17 24 9 13 1013.2 1011.7 0.0
16/05:30pm 32.9 28.6 7.0 20 14.3 SSE 19 30 10 16 1012.9 - 0.0
16/05:00pm 33.2 29.7 8.6 22 14.0 SE 17 24 9 13 1012.7 - 0.0
16/04:30pm 33.2 29.9 7.9 21 14.2 SSE 15 24 8 13 1012.6 - 0.0
16/04:00pm 33.3 30.0 8.0 21 14.2 SSE 15 24 8 13 1012.7 - 0.0
16/03:30pm 33.3 29.2 8.0 21 14.2 S 19 28 10 15 1012.9 - 0.0
16/03:00pm 33.5 29.3 8.2 21 14.3 S 20 30 11 16 1013.1 1011.6 0.0
16/02:30pm 32.7 30.4 8.9 23 13.5 SE 11 19 6 10 1013.4 - 0.0
16/02:00pm 32.9 29.5 9.0 23 13.6 SE 17 28 9 15 1013.8 - 0.0
16/01:30pm 32.9 29.5 9.0 23 13.6 SSE 17 24 9 13 1014.1 - 0.0
16/01:00pm 32.4 30.1 10.4 26 12.8 SE 13 24 7 13 1014.4 - 0.0
16/12:30pm 31.4 29.2 10.7 28 12.0 SE 13 20 7 11 1015.0 - 0.0
16/12:00pm 31.0 28.6 11.4 30 11.5 SE 15 22 8 12 1015.4 1014.0 0.0
16/11:30am 30.5 27.7 11.5 31 11.2 ESE 17 30 9 16 1015.9 - 0.0
16/11:00am 29.9 26.6 10.9 31 11.0 ESE 19 28 10 15 1016.4 - 0.0
16/10:30am 29.3 26.4 10.9 32 10.6 SE 17 22 9 12 1016.6 - 0.0
16/10:00am 27.9 24.6 9.7 32 10.3 SSE 17 22 9 12 1016.7 - 0.0
16/09:30am 26.7 23.5 8.6 32 9.9 SSE 15 20 8 11 1016.6 - 0.0
16/09:00am 25.1 21.5 6.8 31 9.7 SSE 15 19 8 10 1016.6 1015.1 0.2
16/08:30am 23.4 20.1 6.2 33 8.9 S 13 17 7 9 1016.4 - 0.2
16/08:00am 22.2 18.9 6.4 36 8.1 SSW 13 17 7 9 1016.0 - 0.2
16/07:30am 20.9 18.1 6.8 40 7.3 SSW 11 15 6 8 1015.8 - 0.2
16/07:00am 19.7 16.9 6.8 43 6.6 SW 11 13 6 7 1015.6 - 0.2
16/06:30am 20.0 17.5 6.4 41 6.9 SSW 9 13 5 7 1015.2 - 0.2
16/06:00am 22.0 18.8 6.7 37 7.9 S 13 19 7 10 1014.8 1013.4 0.2
16/05:30am 22.2 19.5 7.2 38 7.8 S 11 15 6 8 1014.6 - 0.2
16/05:00am 22.2 19.5 7.2 38 7.8 S 11 13 6 7 1014.5 - 0.2
16/04:30am 22.1 19.3 7.1 38 7.8 SSW 11 13 6 7 1014.3 - 0.2
16/04:00am 22.7 19.9 6.9 36 8.2 S 11 17 6 9 1014.3 - 0.2
16/03:30am 22.9 19.4 7.0 36 8.3 SSW 15 17 8 9 1014.2 - 0.2
16/03:00am 23.6 20.5 7.3 35 8.6 S 13 17 7 9 1014.2 1012.8 0.2
16/02:30am 23.7 20.6 7.3 35 8.7 SSW 13 17 7 9 1014.4 - 0.2
16/02:00am 24.0 21.0 7.6 35 8.7 SSW 13 15 7 8 1014.6 - 0.2
16/01:30am 24.7 21.7 7.8 34 9.1 S 13 17 7 9 1014.6 - 0.2
16/01:00am 25.0 22.4 7.6 33 9.3 S 11 15 6 8 1014.7 - 0.2
16/12:30am 26.1 23.1 7.7 31 9.9 S 13 17 7 9 1014.8 - 0.2
16/12:00am 26.7 23.3 7.7 30 10.3 S 15 17 8 9 1015.0 1013.6 0.2
 
Date/Time
EST
Temp
°C
App
Temp
°C
Dew
Point
Rel
Hum
%
Delta-T
°C
Wind Press
QNH
hPa
Press
MSL
hPa
Rain
since 9 am
mm
Dir
 
Spd
km/h
Gust
km/h
Spd
kts
Gust
kts
15/11:30pm 26.9 23.9 7.9 30 10.3 S 13 17 7 9 1015.0 - 0.2
15/11:00pm 27.0 23.6 7.5 29 10.5 S 15 20 8 11 1014.8 - 0.2
15/10:30pm 27.3 23.5 7.7 29 10.6 S 17 22 9 12 1014.7 - 0.2
15/10:00pm 27.9 23.8 7.7 28 11.0 SSW 19 24 10 13 1014.5 - 0.2
15/09:30pm 28.7 24.4 7.9 27 11.4 SSW 20 26 11 14 1014.3 - 0.2
15/09:00pm 29.5 25.4 8.5 27 11.7 SSW 20 26 11 14 1014.3 1012.9 0.2
15/08:30pm 30.0 26.0 9.0 27 11.8 SSW 20 30 11 16 1014.0 - 0.2
15/08:00pm 30.2 26.4 9.1 27 11.9 SSW 19 24 10 13 1013.5 - 0.2
15/07:30pm 30.8 27.0 9.1 26 12.3 S 19 28 10 15 1012.9 - 0.2
15/07:00pm 31.3 27.6 9.5 26 12.4 S 19 24 10 13 1012.4 - 0.2
15/06:30pm 31.7 29.2 9.8 26 12.6 SSE 13 19 7 10 1012.2 - 0.2
15/06:00pm 32.3 29.8 10.9 27 12.5 SSW 15 20 8 11 1011.6 1010.2 0.2
15/05:30pm 33.1 30.6 11.0 26 13.0 SSE 15 22 8 12 1011.4 - 0.2
15/05:00pm 32.3 30.3 11.5 28 12.3 SSW 13 15 7 8 1011.2 - 0.2
15/04:30pm 32.5 30.3 12.2 29 12.1 SW 15 19 8 10 1011.2 - 0.2
15/04:00pm 32.6 31.2 12.3 29 12.2 SSW 11 22 6 12 1011.2 - 0.2
15/03:30pm 33.2 31.4 13.3 30 12.1 S 15 20 8 11 1011.5 - 0.2
15/03:00pm 33.2 32.4 12.8 29 12.4 S 9 19 5 10 1011.5 1010.1 0.2
15/02:30pm 31.9 30.4 13.2 32 11.3 S 13 19 7 10 1011.9 - 0.2
15/02:00pm 33.1 31.9 12.7 29 12.3 S 11 19 6 10 1012.2 - 0.2
15/01:30pm 32.8 31.6 12.9 29 12.0 ENE 11 19 6 10 1012.6 - 0.2
15/01:00pm 31.7 30.4 12.5 31 11.5 SSE 11 19 6 10 1012.8 - 0.2
15/12:30pm 32.0 32.0 14.2 34 11.0 ENE 7 13 4 7 1013.3 - 0.2
15/12:00pm 30.6 29.2 13.4 35 10.4 SE 13 20 7 11 1013.9 1012.5 0.2
15/11:30am 31.2 29.5 13.5 34 10.7 SE 15 24 8 13 1014.2 - 0.2
15/11:00am 30.3 29.1 14.0 37 9.9 SSE 13 22 7 12 1014.5 - 0.2
15/10:30am 29.7 29.4 14.3 39 9.4 S 9 15 5 8 1014.9 - 0.2
15/10:00am 28.2 27.0 14.1 42 8.5 SSE 13 19 7 10 1015.1 - 0.2
15/09:30am 26.6 25.1 11.9 40 8.5 S 11 17 6 9 1015.1 - 0.2
15/09:00am 25.1 23.6 10.6 40 8.2 SSW 9 15 5 8 1014.9 1013.5 1.6
15/08:30am 24.0 21.9 9.9 41 7.8 SSW 11 15 6 8 1014.8 - 1.6
15/08:00am 22.8 20.0 9.9 44 7.1 SSW 15 19 8 10 1014.4 - 1.6
15/07:30am 22.3 20.4 11.7 51 6.0 SW 13 17 7 9 1014.0 - 1.6
15/07:00am 21.7 21.0 13.1 58 5.0 WSW 9 11 5 6 1013.8 - 1.6
15/06:30am 21.7 21.5 14.8 65 4.1 SW 9 13 5 7 1013.7 - 1.6
15/06:00am 21.6 22.4 17.4 77 2.6 W 9 13 5 7 1013.6 1012.1 1.6
15/05:30am 21.4 23.9 17.2 77 2.6 CALM 0 6 0 3 1013.1 - 1.6
15/05:00am 21.1 21.6 16.5 75 2.8 SW 9 11 5 6 1012.6 - 1.6
15/04:30am 21.1 21.6 16.5 75 2.8 SW 9 11 5 6 1012.3 - 1.6
15/04:00am 21.4 22.2 16.4 73 3.1 S 7 9 4 5 1012.4 - 1.6
15/03:30am 21.4 22.1 17.0 76 2.7 SW 9 9 5 5 1012.5 - 1.6
15/03:00am 21.6 22.7 17.0 75 2.8 SSW 7 9 4 5 1012.5 1011.0 1.6
15/02:30am 22.2 23.1 16.5 70 3.5 S 7 11 4 6 1012.8 - 1.6
15/02:00am 23.0 22.8 16.8 68 3.8 S 13 17 7 9 1012.9 - 1.6
15/01:30am 23.5 24.0 16.5 65 4.3 S 9 11 5 6 1013.2 - 1.6
15/01:00am 23.9 24.3 16.4 63 4.6 S 9 13 5 7 1013.4 - 1.6
15/12:30am 24.0 23.2 16.0 61 4.9 SSE 15 19 8 10 1013.3 - 1.6
15/12:00am 24.8 23.6 16.2 58 5.3 SSE 17 20 9 11 1013.1 1011.6 1.6
 
Date/Time
EST
Temp
°C
App
Temp
°C
Dew
Point
Rel
Hum
%
Delta-T
°C
Wind Press
QNH
hPa
Press
MSL
hPa
Rain
since 9 am
mm
Dir
 
Spd
km/h
Gust
km/h
Spd
kts
Gust
kts
14/11:30pm 25.2 24.0 16.1 57 5.6 SSE 17 20 9 11 1013.2 - 1.6
14/11:00pm 25.1 25.1 17.3 62 4.9 SSE 13 15 7 8 1013.5 - 1.6
14/10:30pm 24.5 25.7 18.2 68 4.0 S 9 11 5 6 1013.5 - 1.6
14/10:00pm 25.0 25.6 17.7 64 4.6 SSW 11 13 6 7 1013.4 - 1.6
14/09:30pm 25.8 25.3 16.9 58 5.6 SSW 15 17 8 9 1013.4 - 1.6
14/09:00pm 25.7 27.1 18.6 65 4.6 SW 9 17 5 9 1013.3 1011.8 1.6
14/08:30pm 26.3 26.9 17.6 58 5.5 S 11 15 6 8 1012.9 - 1.6
14/08:00pm 26.1 25.5 17.5 59 5.4 SSE 17 20 9 11 1012.3 - 1.6
14/07:30pm 25.6 25.4 17.5 61 5.1 S 15 19 8 10 1011.7 - 1.6
14/07:00pm 25.4 24.9 17.8 62 4.8 S 17 20 9 11 1011.2 - 1.6
14/06:30pm 26.5 24.2 16.7 55 6.1 WNW 24 37 13 20 1010.7 - 1.0
14/06:14pm 26.3 23.1 16.3 54 6.2 N 28 44 15 24 1010.6 - 0.4
14/06:00pm 30.1 28.4 14.6 39 9.5 ENE 17 26 9 14 1010.2 1008.7 0.0
14/05:30pm 31.1 28.4 13.4 34 10.7 E 20 26 11 14 1009.8 - 0.0
14/05:00pm 32.8 32.1 11.3 27 12.7 S 6 15 3 8 1009.5 - 0.0
14/04:30pm 33.3 31.0 11.8 27 12.8 SSW 15 20 8 11 1009.4 - 0.0
14/04:00pm 34.3 31.1 12.0 25 13.4 S 20 24 11 13 1009.4 - 0.0

Other Formats:

Comma delimited format used in spreadsheet applications
http://www.bom.gov.au/fwo/IDQ60801/IDQ60801.94338.axf

JavaScript Object Notation format (JSON) in row-major order
http://www.bom.gov.au/fwo/IDQ60801/IDQ60801.94338.json